createdAt,value
2022-12-14T00:00:30.981Z,66.24
2022-12-14T00:01:29.888Z,60.65
2022-12-14T00:02:10.015Z,58.63
2022-12-14T00:02:49.961Z,60.00
2022-12-14T00:03:31.003Z,58.72
2022-12-14T00:04:11.919Z,56.71
2022-12-14T00:04:58.969Z,57.14
2022-12-14T00:05:52.910Z,57.41
2022-12-14T00:06:47.956Z,57.63
2022-12-14T00:07:42.883Z,59.41
2022-12-14T00:08:41.568Z,58.70
2022-12-14T00:09:35.867Z,58.17
2022-12-14T00:10:22.906Z,57.91
2022-12-14T00:10:57.057Z,55.46
2022-12-14T00:11:43.903Z,54.40
2022-12-14T00:12:17.975Z,54.03
2022-12-14T00:13:05.928Z,52.90
2022-12-14T00:13:39.972Z,53.54
2022-12-14T00:14:26.876Z,52.80
2022-12-14T00:15:00.997Z,51.25
2022-12-14T00:15:48.911Z,49.04
2022-12-14T00:16:24.928Z,46.28
2022-12-14T00:17:12.361Z,45.81
2022-12-14T00:17:49.086Z,45.81
2022-12-14T00:18:38.573Z,45.39
2022-12-14T00:19:12.986Z,44.99
2022-12-14T00:19:59.883Z,44.65
2022-12-14T00:20:34.097Z,43.81
2022-12-14T00:21:18.892Z,43.92
2022-12-14T00:21:58.963Z,43.94
2022-12-14T00:22:39.902Z,43.64
2022-12-14T00:23:19.909Z,43.14
2022-12-14T00:24:02.114Z,43.05
2022-12-14T00:24:46.208Z,43.09
2022-12-14T00:25:26.886Z,42.76
2022-12-14T00:26:18.006Z,43.81
2022-12-14T00:26:58.887Z,45.13
2022-12-14T00:27:39.033Z,45.24
2022-12-14T00:28:19.852Z,44.50
2022-12-14T00:29:02.101Z,44.53
2022-12-14T00:29:42.859Z,44.34
2022-12-14T00:30:25.924Z,45.29
2022-12-14T00:31:05.968Z,45.86
2022-12-14T00:31:49.368Z,45.69
2022-12-14T00:32:31.554Z,46.28
2022-12-14T00:33:11.958Z,45.83
2022-12-14T00:33:53.888Z,43.88
2022-12-14T00:34:34.933Z,44.09
2022-12-14T00:35:20.874Z,45.09
2022-12-14T00:36:00.925Z,43.99
2022-12-14T00:36:42.855Z,42.41
2022-12-14T00:37:23.972Z,39.85
2022-12-14T00:38:04.874Z,38.74
2022-12-14T00:38:46.034Z,37.97
2022-12-14T00:39:26.836Z,37.15
2022-12-14T00:40:06.937Z,37.47
2022-12-14T00:40:47.837Z,37.34
2022-12-14T00:41:27.977Z,38.10
2022-12-14T00:42:08.813Z,36.85
2022-12-14T00:42:48.897Z,36.16
2022-12-14T00:43:29.873Z,36.65
2022-12-14T00:44:09.879Z,36.88
2022-12-14T00:44:49.827Z,36.41
2022-12-14T00:45:29.878Z,38.47
2022-12-14T00:46:09.864Z,40.01
2022-12-14T00:46:51.063Z,40.38
2022-12-14T00:47:36.135Z,40.55
2022-12-14T00:48:19.886Z,40.00
2022-12-14T00:49:00.831Z,40.19
2022-12-14T00:49:40.904Z,40.09
2022-12-14T00:50:21.850Z,40.11
2022-12-14T00:51:02.958Z,40.75
2022-12-14T00:51:43.842Z,41.20
2022-12-14T00:52:23.903Z,41.34
2022-12-14T00:53:03.822Z,39.95
2022-12-14T00:53:43.874Z,40.53
2022-12-14T00:54:24.829Z,41.09
2022-12-14T00:55:04.944Z,41.95
2022-12-14T00:55:49.401Z,42.76
2022-12-14T00:56:29.874Z,42.94
2022-12-14T00:57:09.820Z,43.26
2022-12-14T00:57:51.036Z,44.34
2022-12-14T00:58:31.922Z,45.71
2022-12-14T00:59:12.139Z,45.10
2022-12-14T00:59:51.844Z,44.44
2022-12-14T01:00:31.855Z,43.17
2022-12-14T01:01:16.915Z,41.38
2022-12-14T01:01:56.951Z,40.05
2022-12-14T01:02:36.867Z,38.91
2022-12-14T01:03:17.929Z,38.34
2022-12-14T01:04:18.917Z,37.22
2022-12-14T01:05:05.840Z,35.17
2022-12-14T01:05:59.823Z,34.13
2022-12-14T01:06:53.803Z,34.83
2022-12-14T01:07:48.922Z,34.86
2022-12-14T01:08:42.803Z,34.39
2022-12-14T01:09:38.809Z,34.16
2022-12-14T01:10:25.851Z,35.16
2022-12-14T01:11:01.141Z,35.45
2022-12-14T01:11:48.791Z,36.99
2022-12-14T01:12:23.142Z,38.11
2022-12-14T01:13:10.795Z,39.36
2022-12-14T01:13:49.486Z,39.84
2022-12-14T01:14:37.801Z,41.81
2022-12-14T01:15:13.246Z,43.58
2022-12-14T01:15:53.930Z,43.75
2022-12-14T01:16:34.053Z,44.14
2022-12-14T01:17:14.816Z,43.34
2022-12-14T01:17:54.827Z,40.99
2022-12-14T01:18:34.798Z,42.47
2022-12-14T01:19:14.851Z,44.30
2022-12-14T01:19:55.786Z,43.74
2022-12-14T01:20:35.839Z,42.67
2022-12-14T01:21:34.790Z,43.75
2022-12-14T01:22:14.831Z,42.69
2022-12-14T01:22:59.792Z,42.80
2022-12-14T01:23:39.859Z,43.28
2022-12-14T01:24:20.826Z,42.63
2022-12-14T01:25:00.817Z,43.17
2022-12-14T01:25:48.848Z,43.35
2022-12-14T01:26:24.851Z,43.13
2022-12-14T01:27:04.803Z,42.26
2022-12-14T01:27:44.829Z,42.54
2022-12-14T01:28:24.761Z,42.75
2022-12-14T01:29:05.898Z,42.33
2022-12-14T01:29:45.772Z,42.86
2022-12-14T01:30:25.822Z,42.19
2022-12-14T01:31:05.848Z,42.54
2022-12-14T01:31:48.584Z,42.51
2022-12-14T01:32:29.825Z,41.91
2022-12-14T01:33:09.831Z,41.71
2022-12-14T01:33:51.755Z,41.96
2022-12-14T01:34:45.767Z,40.35
2022-12-14T01:35:39.772Z,38.49
2022-12-14T01:36:42.771Z,38.65
2022-12-14T01:37:36.835Z,39.04
2022-12-14T01:38:30.786Z,39.25
2022-12-14T01:39:27.764Z,38.44
2022-12-14T01:40:22.760Z,38.58
2022-12-14T01:41:17.794Z,39.14
2022-12-14T01:42:11.790Z,40.00
2022-12-14T01:42:58.796Z,39.55
2022-12-14T01:43:33.812Z,40.49
2022-12-14T01:44:23.764Z,40.61
2022-12-14T01:45:04.859Z,42.03
2022-12-14T01:45:51.812Z,43.78
2022-12-14T01:46:50.897Z,44.94
2022-12-14T01:47:47.745Z,44.38
2022-12-14T01:48:28.781Z,45.03
2022-12-14T01:49:34.799Z,44.95
2022-12-14T01:50:48.755Z,44.79
2022-12-14T01:51:43.768Z,44.71
2022-12-14T01:52:59.744Z,45.11
2022-12-14T01:53:47.782Z,46.00
2022-12-14T01:54:22.763Z,46.04
2022-12-14T01:55:17.760Z,47.35
2022-12-14T01:55:56.816Z,45.99
2022-12-14T01:56:46.812Z,45.06
2022-12-14T01:57:21.844Z,46.58
2022-12-14T01:58:21.743Z,46.44
2022-12-14T01:59:02.776Z,46.85
2022-12-14T02:00:02.323Z,47.45
2022-12-14T02:01:01.739Z,47.09
2022-12-14T02:01:55.860Z,48.46
2022-12-14T02:02:54.822Z,47.96
2022-12-14T02:03:52.748Z,48.59
2022-12-14T02:04:33.759Z,48.75
2022-12-14T02:05:14.814Z,47.47
2022-12-14T02:06:20.739Z,44.50
2022-12-14T02:07:01.778Z,42.69
2022-12-14T02:07:42.725Z,42.24
2022-12-14T02:08:30.811Z,41.96
2022-12-14T02:09:15.746Z,43.01
2022-12-14T02:09:55.743Z,43.22
2022-12-14T02:10:31.787Z,43.24
2022-12-14T02:11:18.732Z,44.17
2022-12-14T02:12:19.776Z,44.49
2022-12-14T02:13:30.050Z,43.51
2022-12-14T02:14:04.187Z,42.64
2022-12-14T02:14:51.758Z,42.34
2022-12-14T02:15:32.741Z,41.91
2022-12-14T02:16:26.793Z,41.10
2022-12-14T02:17:21.720Z,41.45
2022-12-14T02:18:17.705Z,42.28
2022-12-14T02:19:11.709Z,45.19
2022-12-14T02:20:05.699Z,48.86
2022-12-14T02:21:22.761Z,50.86
2022-12-14T02:22:14.777Z,49.47
2022-12-14T02:23:44.732Z,47.75
2022-12-14T02:24:29.764Z,46.99
2022-12-14T02:25:25.720Z,44.51
2022-12-14T02:27:00.730Z,43.95
2022-12-14T02:28:40.729Z,43.79
2022-12-14T02:30:04.704Z,43.15
2022-12-14T02:31:20.733Z,43.30
2022-12-14T02:32:44.717Z,42.36
2022-12-14T02:34:20.711Z,41.22
2022-12-14T02:35:32.737Z,41.30
2022-12-14T02:36:44.709Z,40.11
2022-12-14T02:38:13.773Z,38.26
2022-12-14T02:39:41.676Z,39.41
2022-12-14T02:41:19.788Z,39.25
2022-12-14T02:42:26.683Z,39.49
2022-12-14T02:43:35.746Z,37.58
2022-12-14T02:45:09.683Z,37.58
2022-12-14T02:46:28.769Z,38.22
2022-12-14T02:47:50.696Z,36.76
2022-12-14T02:48:53.725Z,36.50
2022-12-14T02:50:44.684Z,36.63
2022-12-14T02:51:59.668Z,36.84
2022-12-14T02:53:28.038Z,37.50
2022-12-14T02:54:36.691Z,37.19
2022-12-14T02:55:21.727Z,37.06
2022-12-14T02:56:16.684Z,38.20
2022-12-14T02:57:02.777Z,38.04
2022-12-14T02:58:18.694Z,38.69
2022-12-14T02:58:54.813Z,40.71
2022-12-14T02:59:42.688Z,42.05
2022-12-14T03:00:17.733Z,42.28
2022-12-14T03:01:05.739Z,44.84
2022-12-14T03:01:41.948Z,45.55
2022-12-14T03:02:55.730Z,45.36
2022-12-14T03:03:29.972Z,45.49
2022-12-14T03:04:17.661Z,44.14
2022-12-14T03:05:04.684Z,43.44
2022-12-14T03:06:34.685Z,42.26
2022-12-14T03:07:52.655Z,42.24
2022-12-14T03:08:47.667Z,42.70
2022-12-14T03:09:43.647Z,43.30
2022-12-14T03:10:55.673Z,43.08
2022-12-14T03:11:56.106Z,42.28
2022-12-14T03:12:35.643Z,41.46
2022-12-14T03:13:29.181Z,41.49
2022-12-14T03:14:23.657Z,42.26
2022-12-14T03:15:04.727Z,42.30
2022-12-14T03:15:48.662Z,42.33
2022-12-14T03:16:43.696Z,42.19
2022-12-14T03:17:23.776Z,42.36
2022-12-14T03:18:13.634Z,42.54
2022-12-14T03:19:38.720Z,42.75
2022-12-14T03:20:30.659Z,43.13
2022-12-14T03:21:05.760Z,43.63
2022-12-14T03:22:18.664Z,44.34
2022-12-14T03:23:14.677Z,44.31
2022-12-14T03:24:02.637Z,45.45
2022-12-14T03:24:45.688Z,45.06
2022-12-14T03:26:04.651Z,45.17
2022-12-14T03:26:47.581Z,46.24
2022-12-14T03:27:39.720Z,47.64
2022-12-14T03:28:32.744Z,48.72
2022-12-14T03:29:27.661Z,48.21
2022-12-14T03:30:07.616Z,49.22
2022-12-14T03:31:10.643Z,49.89
2022-12-14T03:31:56.687Z,50.38
2022-12-14T03:32:48.665Z,49.84
2022-12-14T03:33:27.507Z,49.75
2022-12-14T03:34:19.643Z,49.91
2022-12-14T03:35:01.761Z,49.64
2022-12-14T03:36:07.614Z,48.83
2022-12-14T03:36:56.681Z,48.70
2022-12-14T03:37:59.638Z,49.10
2022-12-14T03:38:45.724Z,49.46
2022-12-14T03:39:37.627Z,51.24
2022-12-14T03:40:14.713Z,50.26
2022-12-14T03:41:27.649Z,49.45
2022-12-14T03:42:40.657Z,49.84
2022-12-14T03:43:49.681Z,51.72
2022-12-14T03:45:04.769Z,53.41
2022-12-14T03:46:58.636Z,56.61
2022-12-14T03:48:21.650Z,64.64
2022-12-14T03:49:14.699Z,70.26
2022-12-14T03:50:17.613Z,74.70
2022-12-14T03:51:27.601Z,82.03
2022-12-14T03:52:39.612Z,87.04
2022-12-14T03:53:54.600Z,91.75
2022-12-14T03:54:50.640Z,99.49
2022-12-14T03:55:44.897Z,94.50
2022-12-14T03:57:04.599Z,94.19
2022-12-14T03:58:13.645Z,93.45
2022-12-14T03:59:16.603Z,90.32
2022-12-14T04:00:21.649Z,87.43
2022-12-14T04:01:28.710Z,81.51
2022-12-14T04:02:39.185Z,73.15
2022-12-14T04:04:00.597Z,69.65
2022-12-14T04:05:10.608Z,63.08
2022-12-14T04:05:57.611Z,58.15
2022-12-14T04:07:00.680Z,61.05
2022-12-14T04:07:51.631Z,57.67
2022-12-14T04:08:41.785Z,54.81
2022-12-14T04:09:58.600Z,52.49
2022-12-14T04:11:12.621Z,51.83
2022-12-14T04:12:45.302Z,51.95
2022-12-14T04:14:09.596Z,50.69
2022-12-14T04:15:28.585Z,50.01
2022-12-14T04:16:46.643Z,49.92
2022-12-14T04:18:04.567Z,50.34
2022-12-14T04:19:08.583Z,50.46
2022-12-14T04:20:13.595Z,50.39
2022-12-14T04:21:13.586Z,50.45
2022-12-14T04:22:12.585Z,49.86
2022-12-14T04:22:55.603Z,49.88
2022-12-14T04:24:08.564Z,49.36
2022-12-14T04:25:14.222Z,49.21
2022-12-14T04:26:13.592Z,50.10
2022-12-14T04:26:55.635Z,50.95
2022-12-14T04:27:59.595Z,49.36
2022-12-14T04:29:10.879Z,49.84
2022-12-14T04:30:02.553Z,50.75
2022-12-14T04:30:45.595Z,50.60
2022-12-14T04:31:28.694Z,50.39
2022-12-14T04:32:24.671Z,50.45
2022-12-14T04:33:42.571Z,49.90
2022-12-14T04:34:38.565Z,49.80
2022-12-14T04:35:53.555Z,48.88
2022-12-14T04:36:54.544Z,49.10
2022-12-14T04:37:51.581Z,50.29
2022-12-14T04:38:50.575Z,50.06
2022-12-14T04:39:53.565Z,49.63
2022-12-14T04:40:53.558Z,49.86
2022-12-14T04:41:56.548Z,49.61
2022-12-14T04:43:01.560Z,49.11
2022-12-14T04:43:58.595Z,48.49
2022-12-14T04:45:02.566Z,48.91
2022-12-14T04:46:19.573Z,49.46
2022-12-14T04:47:15.564Z,49.17
2022-12-14T04:48:36.530Z,49.10
2022-12-14T04:49:30.552Z,50.42
2022-12-14T04:50:18.813Z,51.06
2022-12-14T04:51:13.532Z,51.84
2022-12-14T04:52:12.723Z,51.25
2022-12-14T04:53:06.545Z,51.66
2022-12-14T04:53:42.598Z,52.31
2022-12-14T04:54:51.546Z,52.03
2022-12-14T04:56:02.568Z,51.69
2022-12-14T04:57:17.380Z,50.83
2022-12-14T04:58:07.611Z,51.55
2022-12-14T04:58:54.523Z,51.88
2022-12-14T04:59:28.556Z,52.30
2022-12-14T05:00:16.580Z,52.78
2022-12-14T05:01:29.717Z,53.03
2022-12-14T05:02:42.605Z,53.47
2022-12-14T05:03:32.553Z,53.76
2022-12-14T05:04:33.544Z,52.56
2022-12-14T05:05:14.579Z,52.46
2022-12-14T05:06:19.544Z,53.25
2022-12-14T05:07:22.608Z,54.00
2022-12-14T05:08:59.517Z,54.30
2022-12-14T05:10:07.139Z,55.03
2022-12-14T05:12:47.553Z,58.00
2022-12-14T05:13:49.532Z,60.44
2022-12-14T05:14:39.690Z,60.76
2022-12-14T05:15:28.491Z,61.58
2022-12-14T05:16:09.680Z,61.45
2022-12-14T05:16:50.578Z,60.10
2022-12-14T05:17:30.631Z,58.94
2022-12-14T05:18:13.528Z,58.34
2022-12-14T05:18:53.646Z,58.96
2022-12-14T05:19:33.507Z,56.46
2022-12-14T05:20:25.633Z,55.76
2022-12-14T05:21:06.498Z,55.60
2022-12-14T05:21:49.234Z,55.20
2022-12-14T05:22:29.512Z,57.21
2022-12-14T05:23:09.528Z,57.90
2022-12-14T05:23:49.507Z,58.58
2022-12-14T05:24:29.544Z,58.01
2022-12-14T05:25:09.500Z,59.16
2022-12-14T05:25:49.544Z,57.22
2022-12-14T05:26:29.488Z,58.44
2022-12-14T05:27:09.526Z,62.29
2022-12-14T05:27:49.505Z,63.95
2022-12-14T05:28:29.529Z,67.06
2022-12-14T05:29:10.485Z,67.05
2022-12-14T05:29:50.545Z,65.06
2022-12-14T05:30:31.525Z,66.35
2022-12-14T05:31:11.590Z,68.19
2022-12-14T05:31:52.496Z,65.06
2022-12-14T05:32:35.521Z,64.34
2022-12-14T05:33:27.008Z,64.75
2022-12-14T05:34:07.616Z,61.80
2022-12-14T05:34:48.476Z,60.64
2022-12-14T05:35:28.532Z,60.05
2022-12-14T05:36:08.484Z,60.39
2022-12-14T05:36:48.548Z,60.39
2022-12-14T05:37:28.479Z,59.03
2022-12-14T05:38:10.025Z,59.08
2022-12-14T05:38:50.492Z,57.51
2022-12-14T05:39:30.556Z,56.34
2022-12-14T05:40:11.478Z,55.33
2022-12-14T05:40:52.028Z,54.65
2022-12-14T05:41:32.503Z,55.29
2022-12-14T05:42:12.507Z,55.76
2022-12-14T05:42:55.834Z,56.50
2022-12-14T05:43:30.414Z,56.94
2022-12-14T05:44:11.546Z,56.25
2022-12-14T05:44:45.510Z,56.85
2022-12-14T05:45:19.146Z,57.16
2022-12-14T05:46:10.494Z,57.05
2022-12-14T05:46:44.539Z,58.20
2022-12-14T05:47:18.990Z,57.42
2022-12-14T05:47:59.460Z,58.26
2022-12-14T05:48:33.502Z,57.94
2022-12-14T05:49:21.493Z,57.89
2022-12-14T05:49:55.780Z,58.53
2022-12-14T05:50:42.473Z,59.20
2022-12-14T05:51:18.579Z,59.69
2022-12-14T05:52:05.469Z,62.63
2022-12-14T05:52:39.547Z,62.66
2022-12-14T05:53:26.841Z,60.25
2022-12-14T05:54:00.530Z,57.94
2022-12-14T05:54:40.463Z,58.38
2022-12-14T05:55:20.503Z,58.06
2022-12-14T05:56:01.461Z,57.14
2022-12-14T05:56:41.527Z,56.50
2022-12-14T05:57:22.468Z,55.75
2022-12-14T05:58:03.497Z,54.78
2022-12-14T05:58:44.469Z,54.25
2022-12-14T05:59:24.505Z,53.79
2022-12-14T06:00:04.487Z,54.36
2022-12-14T06:00:44.485Z,54.85
2022-12-14T06:01:24.500Z,53.17
2022-12-14T06:02:06.663Z,52.55
2022-12-14T06:02:47.519Z,53.30
2022-12-14T06:03:27.928Z,52.29
2022-12-14T06:04:08.522Z,51.11
2022-12-14T06:04:48.516Z,51.11
2022-12-14T06:05:28.456Z,51.51
2022-12-14T06:06:11.039Z,49.61
2022-12-14T06:06:52.445Z,48.11
2022-12-14T06:07:32.511Z,48.08
2022-12-14T06:08:12.448Z,47.90
2022-12-14T06:08:53.520Z,47.36
2022-12-14T06:09:33.446Z,46.90
2022-12-14T06:10:14.496Z,47.06
2022-12-14T06:10:54.479Z,46.61
2022-12-14T06:11:34.485Z,46.67
2022-12-14T06:12:14.441Z,47.69
2022-12-14T06:12:54.475Z,47.67
2022-12-14T06:13:34.420Z,48.09
2022-12-14T06:14:16.470Z,49.89
2022-12-14T06:14:56.435Z,50.31
2022-12-14T06:15:36.602Z,50.49
2022-12-14T06:16:25.553Z,49.75
2022-12-14T06:17:05.506Z,48.95
2022-12-14T06:17:52.469Z,48.15
2022-12-14T06:18:32.465Z,48.04
2022-12-14T06:19:12.442Z,49.13
2022-12-14T06:19:52.467Z,48.53
2022-12-14T06:20:35.459Z,48.45
2022-12-14T06:21:15.464Z,47.96
2022-12-14T06:21:55.462Z,48.09
2022-12-14T06:22:35.533Z,48.54
2022-12-14T06:23:15.436Z,47.50
2022-12-14T06:23:56.482Z,47.41
2022-12-14T06:24:36.468Z,46.83
2022-12-14T06:25:17.465Z,47.40
2022-12-14T06:26:07.031Z,47.29
2022-12-14T06:26:48.481Z,47.13
2022-12-14T06:27:28.428Z,47.28
2022-12-14T06:28:08.449Z,47.11
2022-12-14T06:28:49.427Z,47.78
2022-12-14T06:29:29.536Z,47.76
2022-12-14T06:30:10.441Z,47.55
2022-12-14T06:30:53.499Z,48.35
2022-12-14T06:31:36.422Z,48.42
2022-12-14T06:32:16.629Z,49.40
2022-12-14T06:32:56.423Z,49.44
2022-12-14T06:33:38.469Z,48.74
2022-12-14T06:34:23.410Z,50.63
2022-12-14T06:35:05.458Z,51.59
2022-12-14T06:35:53.442Z,50.71
2022-12-14T06:36:37.548Z,51.24
2022-12-14T06:37:18.422Z,51.36
2022-12-14T06:38:05.430Z,51.42
2022-12-14T06:38:59.403Z,51.08
2022-12-14T06:39:54.624Z,50.74
2022-12-14T06:40:48.471Z,51.08
2022-12-14T06:41:42.464Z,52.28
2022-12-14T06:42:36.400Z,53.00
2022-12-14T06:43:23.425Z,53.00
2022-12-14T06:44:05.504Z,51.29
2022-12-14T06:44:45.393Z,52.61
2022-12-14T06:45:25.479Z,54.76
2022-12-14T06:46:09.859Z,53.81
2022-12-14T06:46:53.487Z,53.50
2022-12-14T06:47:34.395Z,53.16
2022-12-14T06:48:15.448Z,51.94
2022-12-14T06:48:57.460Z,50.53
2022-12-14T06:49:37.456Z,51.10
2022-12-14T06:50:17.424Z,51.70
2022-12-14T06:50:57.476Z,51.63
2022-12-14T06:51:37.393Z,51.80
2022-12-14T06:52:20.823Z,51.47
2022-12-14T06:53:05.392Z,50.20
2022-12-14T06:53:46.292Z,51.10
2022-12-14T06:54:26.433Z,51.45
2022-12-14T06:55:06.642Z,51.78
2022-12-14T06:55:46.392Z,51.66
2022-12-14T06:56:32.472Z,50.21
2022-12-14T06:57:14.393Z,48.99
2022-12-14T06:57:57.451Z,49.38
2022-12-14T06:58:37.380Z,49.59
2022-12-14T06:59:18.538Z,48.28
2022-12-14T06:59:58.398Z,47.75
2022-12-14T07:00:38.448Z,48.69
2022-12-14T07:01:22.454Z,49.31
2022-12-14T07:02:03.508Z,49.56
2022-12-14T07:02:44.514Z,49.25
2022-12-14T07:03:24.567Z,50.79
2022-12-14T07:04:06.396Z,50.39
2022-12-14T07:04:48.455Z,50.84
2022-12-14T07:05:28.393Z,51.06
2022-12-14T07:06:10.451Z,50.70
2022-12-14T07:06:51.363Z,50.72
2022-12-14T07:07:31.432Z,49.21
2022-12-14T07:08:11.400Z,48.13
2022-12-14T07:08:52.410Z,48.66
2022-12-14T07:09:32.370Z,48.99
2022-12-14T07:10:14.489Z,49.80
2022-12-14T07:10:58.924Z,50.01
2022-12-14T07:11:43.424Z,50.09
2022-12-14T07:12:23.356Z,49.70
2022-12-14T07:13:03.396Z,50.42
2022-12-14T07:13:43.357Z,50.30
2022-12-14T07:14:24.470Z,50.06
2022-12-14T07:15:05.379Z,49.00
2022-12-14T07:15:46.490Z,49.78
2022-12-14T07:16:30.389Z,50.10
2022-12-14T07:17:10.411Z,49.05
2022-12-14T07:17:50.351Z,49.21
2022-12-14T07:18:31.413Z,49.69
2022-12-14T07:19:11.347Z,50.28
2022-12-14T07:19:51.386Z,49.85
2022-12-14T07:20:31.392Z,49.42
2022-12-14T07:21:15.443Z,50.03
2022-12-14T07:21:55.400Z,48.89
2022-12-14T07:22:35.631Z,48.45
2022-12-14T07:23:15.354Z,48.35
2022-12-14T07:23:56.542Z,48.95
2022-12-14T07:24:37.353Z,48.90
2022-12-14T07:25:18.499Z,49.61
2022-12-14T07:25:59.363Z,49.66
2022-12-14T07:26:39.416Z,50.71
2022-12-14T07:27:19.412Z,49.51
2022-12-14T07:27:59.418Z,49.58
2022-12-14T07:28:40.372Z,50.47
2022-12-14T07:29:20.473Z,50.63
2022-12-14T07:30:02.381Z,50.26
2022-12-14T07:30:42.415Z,49.63
2022-12-14T07:31:32.404Z,49.31
2022-12-14T07:32:12.741Z,48.65
2022-12-14T07:32:53.356Z,48.72
2022-12-14T07:33:34.720Z,49.45
2022-12-14T07:34:19.371Z,49.54
2022-12-14T07:35:00.483Z,49.49
2022-12-14T07:35:40.336Z,49.14
2022-12-14T07:36:24.483Z,48.05
2022-12-14T07:37:04.352Z,49.06
2022-12-14T07:37:49.267Z,48.66
2022-12-14T07:38:30.340Z,48.21
2022-12-14T07:39:11.377Z,49.04
2022-12-14T07:39:51.334Z,49.34
2022-12-14T07:40:31.383Z,48.38
2022-12-14T07:41:22.327Z,49.05
2022-12-14T07:42:02.402Z,49.09
2022-12-14T07:42:42.323Z,48.56
2022-12-14T07:43:22.397Z,47.94
2022-12-14T07:44:03.348Z,47.20
2022-12-14T07:44:44.440Z,48.30
2022-12-14T07:45:24.327Z,48.94
2022-12-14T07:46:10.519Z,49.75
2022-12-14T07:46:50.398Z,50.60
2022-12-14T07:47:30.701Z,49.21
2022-12-14T07:48:13.323Z,48.83
2022-12-14T07:48:57.624Z,49.46
2022-12-14T07:49:38.406Z,50.01
2022-12-14T07:50:18.555Z,52.33
2022-12-14T07:50:58.344Z,52.89
2022-12-14T07:51:44.317Z,55.56
2022-12-14T07:52:24.322Z,56.29
2022-12-14T07:53:05.447Z,55.17
2022-12-14T07:53:46.339Z,56.26
2022-12-14T07:54:27.432Z,54.96
2022-12-14T07:55:07.341Z,52.90
2022-12-14T07:55:47.356Z,51.55
2022-12-14T07:56:34.338Z,49.39
2022-12-14T07:57:14.518Z,48.78
2022-12-14T07:57:54.299Z,50.55
2022-12-14T07:58:34.925Z,50.25
2022-12-14T07:59:21.347Z,49.34
2022-12-14T08:00:01.404Z,48.95
2022-12-14T08:00:41.360Z,48.13
2022-12-14T08:01:31.468Z,47.86
2022-12-14T08:02:11.453Z,48.67
2022-12-14T08:02:51.577Z,48.55
2022-12-14T08:03:32.616Z,47.90
2022-12-14T08:04:19.732Z,47.26
2022-12-14T08:05:00.342Z,48.41
2022-12-14T08:05:40.408Z,48.92
2022-12-14T08:06:21.363Z,48.86
2022-12-14T08:07:01.368Z,48.95
2022-12-14T08:07:42.302Z,48.74
2022-12-14T08:08:22.342Z,49.19
2022-12-14T08:09:03.307Z,49.76
2022-12-14T08:09:43.364Z,49.99
2022-12-14T08:10:23.293Z,49.66
2022-12-14T08:11:03.556Z,50.49
2022-12-14T08:11:44.308Z,51.38
2022-12-14T08:12:25.341Z,51.17
2022-12-14T08:13:05.343Z,51.81
2022-12-14T08:13:46.998Z,51.21
2022-12-14T08:14:28.301Z,51.64
2022-12-14T08:15:08.331Z,52.54
2022-12-14T08:15:48.620Z,52.42
2022-12-14T08:16:28.409Z,52.08
2022-12-14T08:17:09.371Z,51.78
2022-12-14T08:17:49.320Z,52.69
2022-12-14T08:18:30.293Z,52.24
2022-12-14T08:19:10.340Z,52.36
2022-12-14T08:19:51.305Z,52.36
2022-12-14T08:20:31.516Z,53.00
2022-12-14T08:21:14.316Z,54.28
2022-12-14T08:21:55.325Z,53.61
2022-12-14T08:22:35.309Z,52.85
2022-12-14T08:23:15.335Z,52.97
2022-12-14T08:23:56.278Z,53.72
2022-12-14T08:24:36.366Z,54.40
2022-12-14T08:25:16.280Z,55.58
2022-12-14T08:26:05.384Z,55.38
2022-12-14T08:26:47.276Z,55.75
2022-12-14T08:27:29.339Z,54.95
2022-12-14T08:28:09.296Z,54.44
2022-12-14T08:28:49.323Z,54.10
2022-12-14T08:29:29.285Z,53.94
2022-12-14T08:30:10.334Z,55.11
2022-12-14T08:30:50.282Z,56.50
2022-12-14T08:31:32.401Z,56.14
2022-12-14T08:32:12.290Z,55.99
2022-12-14T08:32:52.368Z,54.66
2022-12-14T08:33:32.684Z,54.94
2022-12-14T08:34:16.735Z,54.80
2022-12-14T08:34:57.305Z,55.28
2022-12-14T08:35:40.301Z,54.80
2022-12-14T08:36:31.267Z,55.10
2022-12-14T08:37:11.300Z,55.92
2022-12-14T08:37:51.281Z,56.40
2022-12-14T08:38:39.292Z,55.58
2022-12-14T08:39:13.371Z,56.50
2022-12-14T08:40:01.270Z,58.22
2022-12-14T08:40:35.935Z,58.13
2022-12-14T08:41:28.290Z,57.78
2022-12-14T08:42:01.933Z,57.92
2022-12-14T08:42:49.261Z,57.50
2022-12-14T08:43:25.647Z,58.26
2022-12-14T08:44:07.268Z,59.08
2022-12-14T08:44:41.308Z,59.09
2022-12-14T08:45:15.317Z,58.74
2022-12-14T08:45:55.254Z,59.14
2022-12-14T08:46:29.362Z,59.05
2022-12-14T08:47:03.021Z,58.00
2022-12-14T08:47:43.268Z,58.35
2022-12-14T08:48:17.770Z,59.28
2022-12-14T08:48:55.108Z,59.15
2022-12-14T08:49:36.285Z,59.47
2022-12-14T08:50:10.312Z,58.91
2022-12-14T08:50:43.921Z,58.79
2022-12-14T08:51:25.245Z,59.53
2022-12-14T08:51:59.774Z,58.92
2022-12-14T08:52:34.628Z,58.95
2022-12-14T08:53:14.254Z,58.61
2022-12-14T08:53:48.298Z,60.39
2022-12-14T08:54:24.085Z,60.39
2022-12-14T08:55:05.295Z,61.01
2022-12-14T08:55:39.272Z,61.05
2022-12-14T08:56:15.821Z,60.54
2022-12-14T08:56:56.228Z,63.53
2022-12-14T08:57:30.320Z,63.89
2022-12-14T08:58:03.912Z,63.20
2022-12-14T08:58:47.251Z,62.22
2022-12-14T08:59:52.147Z,61.65
2022-12-14T09:00:22.255Z,60.76
2022-12-14T09:01:18.399Z,61.53
2022-12-14T09:01:58.440Z,62.13
2022-12-14T09:02:38.361Z,61.91
2022-12-14T09:03:19.277Z,62.36
2022-12-14T09:03:59.270Z,63.06
2022-12-14T09:04:41.242Z,63.54
2022-12-14T09:05:21.340Z,61.84
2022-12-14T09:06:02.272Z,60.08
2022-12-14T09:06:45.289Z,60.00
2022-12-14T09:07:25.225Z,61.58
2022-12-14T09:08:06.291Z,60.49
2022-12-14T09:08:47.183Z,60.53
2022-12-14T09:09:30.277Z,60.20
2022-12-14T09:10:10.249Z,59.39
2022-12-14T09:10:56.254Z,58.42
2022-12-14T09:11:36.254Z,58.33
2022-12-14T09:12:16.296Z,57.95
2022-12-14T09:12:57.231Z,58.15
2022-12-14T09:13:37.257Z,58.16
2022-12-14T09:14:17.212Z,56.76
2022-12-14T09:14:58.309Z,56.84
2022-12-14T09:15:38.242Z,57.78
2022-12-14T09:16:27.947Z,58.66
2022-12-14T09:17:09.237Z,57.71
2022-12-14T09:17:50.910Z,56.95
2022-12-14T09:18:31.638Z,57.71
2022-12-14T09:19:12.267Z,57.30
2022-12-14T09:19:52.211Z,57.11
2022-12-14T09:20:32.420Z,56.55
2022-12-14T09:21:13.217Z,56.65
2022-12-14T09:21:54.305Z,56.76
2022-12-14T09:22:34.247Z,56.58
2022-12-14T09:23:14.243Z,57.46
2022-12-14T09:23:59.318Z,56.29
2022-12-14T09:24:40.268Z,56.67
2022-12-14T09:25:20.226Z,55.85
2022-12-14T09:26:17.408Z,54.88
2022-12-14T09:26:58.216Z,54.91
2022-12-14T09:27:45.229Z,56.11
2022-12-14T09:28:18.887Z,55.60
2022-12-14T09:29:09.205Z,54.88
2022-12-14T09:29:43.481Z,55.17
2022-12-14T09:30:32.183Z,55.80
2022-12-14T09:31:10.602Z,55.06
2022-12-14T09:31:58.292Z,54.99
2022-12-14T09:32:31.995Z,54.45
2022-12-14T09:33:12.222Z,54.91
2022-12-14T09:33:46.331Z,54.94
2022-12-14T09:34:19.873Z,53.97
2022-12-14T09:35:00.201Z,53.94
2022-12-14T09:35:34.230Z,54.05
2022-12-14T09:36:17.802Z,54.17
2022-12-14T09:36:59.177Z,55.19
2022-12-14T09:37:33.268Z,54.90
2022-12-14T09:38:06.966Z,54.24
2022-12-14T09:38:51.546Z,54.20
2022-12-14T09:39:26.264Z,54.44
2022-12-14T09:39:59.914Z,53.99
2022-12-14T09:40:52.195Z,54.78
2022-12-14T09:41:40.259Z,56.86
2022-12-14T09:43:02.743Z,57.60
2022-12-14T09:43:50.210Z,56.63
2022-12-14T09:45:06.264Z,56.55
2022-12-14T09:45:57.199Z,55.13
2022-12-14T09:47:04.327Z,55.42
2022-12-14T09:48:07.191Z,55.96
2022-12-14T09:48:41.242Z,55.90
2022-12-14T09:49:47.214Z,55.46
2022-12-14T09:50:29.412Z,55.71
2022-12-14T09:51:10.262Z,55.64
2022-12-14T09:51:50.301Z,55.60
2022-12-14T09:52:46.185Z,55.01
2022-12-14T09:53:27.707Z,54.75
2022-12-14T09:54:13.181Z,53.75
2022-12-14T09:55:02.193Z,53.99
2022-12-14T09:56:03.190Z,53.59
2022-12-14T09:56:57.201Z,53.58
2022-12-14T09:57:55.188Z,53.40
2022-12-14T09:58:50.176Z,53.44
2022-12-14T09:59:46.218Z,53.45
2022-12-14T10:00:28.246Z,52.78
2022-12-14T10:01:30.705Z,52.99
2022-12-14T10:03:06.512Z,53.80
2022-12-14T10:04:14.435Z,56.08
2022-12-14T10:05:10.192Z,60.10
2022-12-14T10:06:23.192Z,59.92
2022-12-14T10:07:28.389Z,59.80
2022-12-14T10:08:42.369Z,58.16
2022-12-14T10:09:41.638Z,57.96
2022-12-14T10:11:09.181Z,56.15
2022-12-14T10:12:29.706Z,55.21
2022-12-14T10:14:17.169Z,55.24
2022-12-14T10:15:56.141Z,55.83